< < Back
Terminal Aerodrome Forecast


Current Version              Previous Versions:   1  2  3  4  5  6  7  8  9  

Terminal Aerodrome Forecast

032
FTUS44 KMRX 190520
TAFCHA
TAF
KCHA 190520Z 1906/2006 02003KT P6SM SCT045
     FM191500 01006KT P6SM FEW050 BKN200
     FM200100 VRB03KT P6SM BKN100=

Latest METAR

716
SAUS80 KWBC 200300
MTRCHA
METAR KCHA 200253Z 33004KT 10SM SCT130 BKN200 BKN250 06/M02 A3020 RMK
AO2 SLP230 T00611017 53004


USA.gov is the U.S. government's official web portal to all federal, state and local government web resources and services.